createdAt,value
2018-11-02T00:01:32.889Z,90.12
2018-11-02T00:04:02.966Z,90.20
2018-11-02T00:06:34.126Z,89.64
2018-11-02T00:09:04.174Z,89.46
2018-11-02T00:11:33.994Z,90.28
2018-11-02T00:14:03.868Z,90.03
2018-11-02T00:16:33.711Z,91.29
2018-11-02T00:19:03.575Z,91.13
2018-11-02T00:21:33.410Z,90.81
2018-11-02T00:24:03.373Z,89.05
2018-11-02T00:26:33.235Z,88.76
2018-11-02T00:29:03.151Z,88.97
2018-11-02T00:31:32.987Z,89.91
2018-11-02T00:34:02.873Z,89.57
2018-11-02T00:36:32.771Z,88.58
2018-11-02T00:39:02.708Z,90.06
2018-11-02T00:41:32.472Z,89.91
2018-11-02T00:44:02.454Z,90.15
2018-11-02T00:46:32.170Z,90.61
2018-11-02T00:49:02.360Z,90.96
2018-11-02T00:51:32.171Z,91.00
2018-11-02T00:54:02.030Z,90.37
2018-11-02T00:56:31.864Z,89.35
2018-11-02T00:59:01.805Z,89.30
2018-11-02T01:01:31.617Z,88.75
2018-11-02T01:04:01.455Z,88.59
2018-11-02T01:06:31.376Z,88.40
2018-11-02T01:09:01.319Z,88.58
2018-11-02T01:11:31.110Z,88.92
2018-11-02T01:14:00.934Z,89.00
2018-11-02T01:16:30.803Z,88.54
2018-11-02T01:19:00.740Z,88.73
2018-11-02T01:21:30.516Z,88.74
2018-11-02T01:24:00.470Z,88.72
2018-11-02T01:26:30.489Z,88.96
2018-11-02T01:29:00.411Z,88.79
2018-11-02T01:31:30.212Z,89.40
2018-11-02T01:34:00.013Z,89.54
2018-11-02T01:36:29.871Z,89.30
2018-11-02T01:38:59.732Z,88.82
2018-11-02T01:41:29.498Z,88.22
2018-11-02T01:43:59.383Z,88.66
2018-11-02T01:46:29.310Z,88.80
2018-11-02T01:48:59.233Z,88.77
2018-11-02T01:51:29.069Z,88.82
2018-11-02T01:53:58.983Z,88.67
2018-11-02T01:56:28.798Z,88.79
2018-11-02T01:58:58.691Z,88.29
2018-11-02T02:01:28.471Z,88.16
2018-11-02T02:03:58.263Z,87.84
2018-11-02T02:06:28.137Z,88.06
2018-11-02T02:08:58.076Z,88.33
2018-11-02T02:11:27.856Z,87.75
2018-11-02T02:13:57.704Z,87.76
2018-11-02T02:16:27.570Z,87.73
2018-11-02T02:18:57.490Z,88.06
2018-11-02T02:21:27.280Z,87.60
2018-11-02T02:23:57.141Z,87.64
2018-11-02T02:26:26.993Z,88.24
2018-11-02T02:28:56.852Z,88.06
2018-11-02T02:31:26.767Z,87.58
2018-11-02T02:33:56.627Z,88.75
2018-11-02T02:36:26.450Z,89.33
2018-11-02T02:38:56.340Z,89.19
2018-11-02T02:41:26.049Z,89.62
2018-11-02T02:43:55.870Z,89.33
2018-11-02T02:46:25.880Z,88.51
2018-11-02T02:48:55.727Z,89.28
2018-11-02T02:51:25.504Z,89.10
2018-11-02T02:53:55.359Z,88.95
2018-11-02T02:56:25.256Z,89.31
2018-11-02T02:58:56.378Z,88.44
2018-11-02T03:01:26.261Z,88.70
2018-11-02T03:03:56.150Z,88.88
2018-11-02T03:06:26.056Z,88.70
2018-11-02T03:08:56.212Z,88.83
2018-11-02T03:11:25.993Z,88.58
2018-11-02T03:13:55.872Z,88.28
2018-11-02T03:16:25.775Z,88.36
2018-11-02T03:18:55.611Z,88.12
2018-11-02T03:21:25.380Z,87.94
2018-11-02T03:23:55.356Z,88.13
2018-11-02T03:26:25.204Z,87.88
2018-11-02T03:28:55.037Z,88.01
2018-11-02T03:31:24.790Z,87.98
2018-11-02T03:33:54.645Z,87.73
2018-11-02T03:36:24.487Z,88.34
2018-11-02T03:38:54.356Z,88.41
2018-11-02T03:41:24.100Z,89.13
2018-11-02T03:43:53.974Z,88.58
2018-11-02T03:46:23.890Z,88.36
2018-11-02T03:48:53.701Z,88.90
2018-11-02T03:51:23.428Z,88.93
2018-11-02T03:53:53.290Z,89.25
2018-11-02T03:56:23.134Z,88.63
2018-11-02T03:58:53.001Z,88.65
2018-11-02T04:01:22.813Z,88.35
2018-11-02T04:03:52.914Z,88.25
2018-11-02T04:06:22.826Z,88.01
2018-11-02T04:08:52.724Z,88.46
2018-11-02T04:11:22.446Z,88.03
2018-11-02T04:13:52.280Z,87.56
2018-11-02T04:16:22.168Z,87.94
2018-11-02T04:18:52.010Z,87.26
2018-11-02T04:21:21.885Z,87.74
2018-11-02T04:23:51.782Z,88.08
2018-11-02T04:26:21.746Z,88.74
2018-11-02T04:28:51.615Z,89.13
2018-11-02T04:31:21.426Z,89.60
2018-11-02T04:33:51.178Z,89.87
2018-11-02T04:36:21.067Z,90.04
2018-11-02T04:38:50.921Z,89.83
2018-11-02T04:41:20.734Z,89.99
2018-11-02T04:43:50.492Z,89.86
2018-11-02T04:46:20.399Z,90.18
2018-11-02T04:48:50.277Z,90.22
2018-11-02T04:51:20.128Z,90.98
2018-11-02T04:53:54.280Z,91.51
2018-11-02T04:56:25.668Z,91.89
2018-11-02T04:58:55.485Z,91.87
2018-11-02T05:01:25.306Z,92.47
2018-11-02T05:03:55.216Z,92.54
2018-11-02T05:06:25.065Z,92.70
2018-11-02T05:08:54.956Z,93.00
2018-11-02T05:11:24.832Z,93.06
2018-11-02T05:13:55.723Z,93.41
2018-11-02T05:16:25.657Z,93.10
2018-11-02T05:18:55.443Z,93.10
2018-11-02T05:21:25.353Z,92.72
2018-11-02T05:23:56.238Z,92.31
2018-11-02T05:26:26.098Z,92.47
2018-11-02T05:28:55.922Z,92.17
2018-11-02T05:31:25.752Z,92.14
2018-11-02T05:33:56.520Z,91.52
2018-11-02T05:36:26.382Z,91.57
2018-11-02T05:38:56.278Z,91.43
2018-11-02T05:41:26.126Z,91.37
2018-11-02T05:43:55.962Z,91.47
2018-11-02T05:46:25.918Z,91.42
2018-11-02T05:48:55.805Z,90.87
2018-11-02T05:51:25.629Z,90.88
2018-11-02T05:53:55.490Z,90.55
2018-11-02T05:56:25.403Z,90.72
2018-11-02T05:58:55.189Z,90.70
2018-11-02T06:01:25.143Z,90.51
2018-11-02T06:03:54.946Z,90.40
2018-11-02T06:06:24.840Z,90.41
2018-11-02T06:08:54.710Z,89.91
2018-11-02T06:11:24.604Z,90.07
2018-11-02T06:13:54.437Z,89.77
2018-11-02T06:16:24.376Z,89.49
2018-11-02T06:18:54.264Z,89.58
2018-11-02T06:21:24.134Z,89.07
2018-11-02T06:23:53.957Z,89.16
2018-11-02T06:26:23.898Z,89.08
2018-11-02T06:28:53.758Z,88.69
2018-11-02T06:31:23.600Z,88.31
2018-11-02T06:33:53.416Z,88.36
2018-11-02T06:36:23.337Z,88.18
2018-11-02T06:38:53.417Z,88.61
2018-11-02T06:41:23.239Z,88.67
2018-11-02T06:43:53.057Z,87.57
2018-11-02T06:46:22.970Z,86.05
2018-11-02T06:48:52.911Z,84.86
2018-11-02T06:51:22.704Z,83.09
2018-11-02T06:53:52.495Z,81.75
2018-11-02T06:56:22.404Z,80.55
2018-11-02T06:58:52.334Z,80.66
2018-11-02T07:01:22.177Z,80.20
2018-11-02T07:03:52.018Z,80.85
2018-11-02T07:06:21.910Z,80.29
2018-11-02T07:08:51.870Z,79.77
2018-11-02T07:11:21.738Z,80.15
2018-11-02T07:13:51.616Z,80.58
2018-11-02T07:16:21.503Z,81.30
2018-11-02T07:18:51.394Z,82.03
2018-11-02T07:21:21.297Z,81.64
2018-11-02T07:23:51.290Z,81.15
2018-11-02T07:26:21.274Z,80.64
2018-11-02T07:28:51.212Z,81.19
2018-11-02T07:31:22.051Z,81.57
2018-11-02T07:33:51.977Z,81.64
2018-11-02T07:36:21.957Z,81.31
2018-11-02T07:38:51.950Z,80.63
2018-11-02T07:41:21.747Z,80.00
2018-11-02T07:43:51.651Z,80.32
2018-11-02T07:46:21.574Z,80.44
2018-11-02T07:48:51.467Z,80.46
2018-11-02T07:51:21.452Z,80.22
2018-11-02T07:53:51.336Z,78.90
2018-11-02T07:56:21.234Z,78.78
2018-11-02T07:58:51.140Z,79.41
2018-11-02T08:01:21.069Z,78.71
2018-11-02T08:03:50.952Z,79.00
2018-11-02T08:06:20.919Z,79.09
2018-11-02T08:08:50.895Z,78.30
2018-11-02T08:11:20.816Z,77.28
2018-11-02T08:13:50.667Z,76.88
2018-11-02T08:16:20.649Z,77.22
2018-11-02T08:18:50.543Z,77.07
2018-11-02T08:21:20.381Z,77.25
2018-11-02T08:23:50.358Z,77.23
2018-11-02T08:26:20.214Z,77.60
2018-11-02T08:28:50.142Z,77.85
2018-11-02T08:31:20.211Z,78.45
2018-11-02T08:33:50.119Z,77.49
2018-11-02T08:36:20.025Z,76.09
2018-11-02T08:38:49.980Z,75.78
2018-11-02T08:41:19.870Z,76.57
2018-11-02T08:43:49.859Z,76.95
2018-11-02T08:46:19.883Z,77.09
2018-11-02T08:48:49.775Z,77.36
2018-11-02T08:51:19.719Z,77.02
2018-11-02T08:53:49.647Z,77.12
2018-11-02T08:56:19.637Z,77.07
2018-11-02T08:58:49.807Z,76.81
2018-11-02T09:01:19.583Z,76.78
2018-11-02T09:03:49.498Z,77.01
2018-11-02T09:06:19.479Z,76.64
2018-11-02T09:08:49.397Z,76.14
2018-11-02T09:11:19.384Z,76.13
2018-11-02T09:13:49.318Z,75.34
2018-11-02T09:16:19.238Z,74.00
2018-11-02T09:18:49.200Z,72.56
2018-11-02T09:21:19.050Z,71.56
2018-11-02T09:23:48.998Z,69.48
2018-11-02T09:26:18.935Z,68.85
2018-11-02T09:28:48.859Z,68.85
2018-11-02T09:31:18.759Z,69.06
2018-11-02T09:33:48.645Z,68.81
2018-11-02T09:36:18.562Z,69.17
2018-11-02T09:38:48.492Z,68.47
2018-11-02T09:41:18.390Z,67.92
2018-11-02T09:43:48.395Z,67.17
2018-11-02T09:46:18.335Z,65.78
2018-11-02T09:48:48.289Z,66.17
2018-11-02T09:51:18.184Z,66.23
2018-11-02T09:53:48.084Z,65.86
2018-11-02T09:56:17.958Z,66.15
2018-11-02T09:58:47.911Z,65.48
2018-11-02T10:01:17.824Z,65.94
2018-11-02T10:03:48.819Z,65.83
2018-11-02T10:06:18.634Z,66.70
2018-11-02T10:08:48.572Z,65.50
2018-11-02T10:11:18.446Z,65.40
2018-11-02T10:13:48.407Z,65.43
2018-11-02T10:16:18.274Z,65.53
2018-11-02T10:18:48.215Z,65.11
2018-11-02T10:21:18.140Z,65.45
2018-11-02T10:23:48.098Z,66.49
2018-11-02T10:26:18.054Z,65.87
2018-11-02T10:28:48.028Z,65.73
2018-11-02T10:31:17.928Z,65.39
2018-11-02T10:33:49.036Z,65.80
2018-11-02T10:36:18.986Z,66.14
2018-11-02T10:38:48.959Z,65.92
2018-11-02T10:41:23.049Z,66.57
2018-11-02T10:43:52.959Z,66.68
2018-11-02T10:46:22.914Z,67.35
2018-11-02T10:48:52.923Z,67.71
2018-11-02T10:51:22.715Z,66.78
2018-11-02T10:53:52.730Z,65.84
2018-11-02T10:56:22.629Z,65.15
2018-11-02T10:58:52.566Z,63.44
2018-11-02T11:01:27.557Z,63.95
2018-11-02T11:03:57.366Z,63.88
2018-11-02T11:06:27.335Z,63.34
2018-11-02T11:08:57.280Z,63.21
2018-11-02T11:11:27.229Z,63.42
2018-11-02T11:13:57.074Z,62.21
2018-11-02T11:16:27.010Z,61.28
2018-11-02T11:18:56.938Z,61.54
2018-11-02T11:21:26.861Z,61.59
2018-11-02T11:23:56.778Z,61.31
2018-11-02T11:26:26.688Z,61.91
2018-11-02T11:28:56.642Z,61.77
2018-11-02T11:31:26.536Z,61.39
2018-11-02T11:33:56.456Z,61.23
2018-11-02T11:36:27.020Z,61.12
2018-11-02T11:38:57.053Z,60.73
2018-11-02T11:41:26.862Z,61.50
2018-11-02T11:43:56.747Z,60.72
2018-11-02T11:46:26.674Z,60.41
2018-11-02T11:48:56.704Z,60.48
2018-11-02T11:51:26.409Z,59.97
2018-11-02T11:53:56.464Z,59.69
2018-11-02T11:56:26.420Z,59.92
2018-11-02T11:58:56.368Z,60.42
2018-11-02T12:01:26.274Z,60.08
2018-11-02T12:03:56.166Z,60.49
2018-11-02T12:06:26.131Z,60.71
2018-11-02T12:08:56.242Z,60.69
2018-11-02T12:11:26.099Z,60.29
2018-11-02T12:13:56.063Z,60.49
2018-11-02T12:16:25.958Z,61.17
2018-11-02T12:18:55.884Z,61.12
2018-11-02T12:21:25.795Z,61.83
2018-11-02T12:23:55.808Z,62.07
2018-11-02T12:26:25.602Z,62.56
2018-11-02T12:28:55.548Z,63.07
2018-11-02T12:31:25.420Z,63.50
2018-11-02T12:33:55.348Z,64.37
2018-11-02T12:36:25.153Z,64.79
2018-11-02T12:38:55.126Z,65.13
2018-11-02T12:41:24.935Z,64.88
2018-11-02T12:43:54.925Z,64.98
2018-11-02T12:46:24.810Z,65.25
2018-11-02T12:48:54.930Z,66.09
2018-11-02T12:51:24.500Z,65.98
2018-11-02T12:53:54.457Z,66.49
2018-11-02T12:56:24.316Z,66.94
2018-11-02T12:58:54.252Z,67.06
2018-11-02T13:01:24.216Z,67.21
2018-11-02T13:03:54.101Z,67.37
2018-11-02T13:06:23.892Z,67.01
2018-11-02T13:08:53.862Z,67.44
2018-11-02T13:11:23.651Z,67.30
2018-11-02T13:13:53.945Z,67.84
2018-11-02T13:16:23.839Z,68.16
2018-11-02T13:18:53.798Z,68.34
2018-11-02T13:21:23.595Z,68.34
2018-11-02T13:23:53.570Z,68.34
2018-11-02T13:26:23.510Z,69.24
2018-11-02T13:28:53.334Z,69.67
2018-11-02T13:31:23.284Z,69.68
2018-11-02T13:33:53.338Z,70.54
2018-11-02T13:36:23.320Z,72.00
2018-11-02T13:38:53.238Z,72.31
2018-11-02T13:41:23.053Z,73.59
2018-11-02T13:43:52.979Z,74.28
2018-11-02T13:46:22.972Z,75.75
2018-11-02T13:48:52.906Z,76.39
2018-11-02T13:51:22.748Z,77.15
2018-11-02T13:53:52.709Z,77.50
2018-11-02T13:56:22.596Z,78.42
2018-11-02T13:58:52.585Z,78.37
2018-11-02T14:01:22.394Z,78.84
2018-11-02T14:03:52.315Z,79.59
2018-11-02T14:06:22.257Z,79.97
2018-11-02T14:08:52.234Z,80.33
2018-11-02T14:11:22.275Z,81.10
2018-11-02T14:13:52.180Z,80.91
2018-11-02T14:16:22.137Z,81.86
2018-11-02T14:18:52.094Z,81.55
2018-11-02T14:21:21.914Z,82.17
2018-11-02T14:23:51.875Z,83.00
2018-11-02T14:26:21.750Z,83.34
2018-11-02T14:28:51.618Z,83.94
2018-11-02T14:31:21.570Z,84.05
2018-11-02T14:33:51.459Z,84.32
2018-11-02T14:36:21.412Z,84.77
2018-11-02T14:38:51.395Z,84.67
2018-11-02T14:41:21.351Z,85.19
2018-11-02T14:43:51.244Z,85.74
2018-11-02T14:46:21.151Z,85.79
2018-11-02T14:48:51.012Z,86.04
2018-11-02T14:51:20.888Z,86.08
2018-11-02T14:53:50.860Z,86.09
2018-11-02T14:56:20.763Z,86.47
2018-11-02T14:58:50.708Z,86.63
2018-11-02T15:01:20.607Z,86.81
2018-11-02T15:03:50.534Z,86.51
2018-11-02T15:06:20.498Z,86.89
2018-11-02T15:08:50.422Z,86.84
2018-11-02T15:11:20.310Z,87.46
2018-11-02T15:13:50.191Z,87.24
2018-11-02T15:16:20.132Z,87.39
2018-11-02T15:18:50.000Z,88.36
2018-11-02T15:21:19.914Z,88.75
2018-11-02T15:23:49.896Z,88.80
2018-11-02T15:26:19.865Z,89.29
2018-11-02T15:28:49.807Z,88.97
2018-11-02T15:31:19.718Z,89.07
2018-11-02T15:33:49.598Z,89.34
2018-11-02T15:36:19.515Z,89.41
2018-11-02T15:38:49.390Z,89.70
2018-11-02T15:41:19.295Z,89.69
2018-11-02T15:43:49.221Z,89.29
2018-11-02T15:46:19.191Z,89.70
2018-11-02T15:48:49.083Z,89.37
2018-11-02T15:51:18.950Z,89.79
2018-11-02T15:53:48.779Z,89.57
2018-11-02T15:56:18.675Z,89.84
2018-11-02T15:58:48.638Z,89.64
2018-11-02T16:01:18.499Z,90.20
2018-11-02T16:03:48.338Z,90.01
2018-11-02T16:06:18.356Z,90.13
2018-11-02T16:08:48.258Z,90.24
2018-11-02T16:11:18.124Z,90.17
2018-11-02T16:13:48.007Z,90.49
2018-11-02T16:16:17.913Z,90.41
2018-11-02T16:18:47.859Z,90.75
2018-11-02T16:21:17.778Z,90.78
2018-11-02T16:23:47.663Z,90.70
2018-11-02T16:26:17.579Z,90.66
2018-11-02T16:28:47.467Z,91.12
2018-11-02T16:31:17.487Z,91.19
2018-11-02T16:33:47.322Z,91.64
2018-11-02T16:36:17.304Z,91.22
2018-11-02T16:38:48.207Z,90.66
2018-11-02T16:41:18.159Z,90.89
2018-11-02T16:43:48.091Z,91.54
2018-11-02T16:46:17.920Z,91.61
2018-11-02T16:48:47.777Z,92.04
2018-11-02T16:51:17.713Z,92.60
2018-11-02T16:53:47.633Z,92.50
2018-11-02T16:56:17.567Z,92.49
2018-11-02T16:58:47.475Z,92.44
2018-11-02T17:01:17.430Z,92.34
2018-11-02T17:03:47.346Z,92.28
2018-11-02T17:06:17.366Z,92.33
2018-11-02T17:08:47.298Z,92.73
2018-11-02T17:11:17.211Z,92.39
2018-11-02T17:13:47.070Z,92.33
2018-11-02T17:16:17.636Z,92.66
2018-11-02T17:18:47.486Z,92.25
2018-11-02T17:21:17.419Z,92.42
2018-11-02T17:23:47.271Z,92.51
2018-11-02T17:26:17.190Z,92.76
2018-11-02T17:28:47.065Z,92.80
2018-11-02T17:31:17.038Z,92.64
2018-11-02T17:33:46.862Z,92.53
2018-11-02T17:36:16.925Z,92.87
2018-11-02T17:38:46.762Z,92.30
2018-11-02T17:41:16.659Z,91.70
2018-11-02T17:43:46.484Z,92.22
2018-11-02T17:46:16.390Z,92.26
2018-11-02T17:48:46.170Z,91.92
2018-11-02T17:51:16.084Z,92.56
2018-11-02T17:53:45.898Z,92.04
2018-11-02T17:56:15.787Z,92.29
2018-11-02T17:58:45.525Z,92.32
2018-11-02T18:01:15.534Z,92.46
2018-11-02T18:03:45.460Z,92.56
2018-11-02T18:06:15.391Z,92.49
2018-11-02T18:08:45.631Z,92.88
2018-11-02T18:11:15.591Z,92.65
2018-11-02T18:13:45.507Z,93.06
2018-11-02T18:16:15.564Z,93.12
2018-11-02T18:18:45.812Z,93.54
2018-11-02T18:21:15.917Z,93.07
2018-11-02T18:23:46.147Z,92.96
2018-11-02T18:26:16.166Z,93.39
2018-11-02T18:28:46.238Z,93.61
2018-11-02T18:31:16.330Z,93.45
2018-11-02T18:33:46.678Z,93.35
2018-11-02T18:36:17.011Z,93.30
2018-11-02T18:38:47.199Z,93.79
2018-11-02T18:41:17.483Z,93.65
2018-11-02T18:43:47.483Z,93.55
2018-11-02T18:46:17.600Z,93.67
2018-11-02T18:48:47.646Z,93.66
2018-11-02T18:51:17.885Z,93.19
2018-11-02T18:53:47.886Z,93.83
2018-11-02T18:56:17.871Z,94.34
2018-11-02T18:58:47.917Z,93.17
2018-11-02T19:01:18.290Z,93.17
2018-11-02T19:03:48.450Z,93.07
2018-11-02T19:06:18.916Z,93.17
2018-11-02T19:08:49.153Z,93.66
2018-11-02T19:11:19.463Z,93.53
2018-11-02T19:13:49.784Z,94.07
2018-11-02T19:16:20.653Z,93.67
2018-11-02T19:18:50.892Z,93.92
2018-11-02T19:21:22.194Z,93.73
2018-11-02T19:23:52.800Z,93.99
2018-11-02T19:26:23.195Z,93.94
2018-11-02T19:28:53.512Z,93.83
2018-11-02T19:31:23.945Z,93.52
2018-11-02T19:33:55.384Z,93.91
2018-11-02T19:36:25.692Z,94.02
2018-11-02T19:38:55.974Z,93.90
2018-11-02T19:41:26.301Z,93.98
2018-11-02T19:43:56.686Z,93.54
2018-11-02T19:46:27.059Z,94.05
2018-11-02T19:48:57.461Z,93.54
2018-11-02T19:51:27.664Z,93.61
2018-11-02T19:53:58.015Z,93.77
2018-11-02T19:56:28.567Z,93.48
2018-11-02T19:58:59.320Z,93.99
2018-11-02T20:01:29.507Z,93.53
2018-11-02T20:03:59.623Z,93.92
2018-11-02T20:06:30.019Z,93.89
2018-11-02T20:09:00.226Z,93.78
2018-11-02T20:11:30.374Z,93.44
2018-11-02T20:14:00.721Z,93.56
2018-11-02T20:16:31.999Z,93.57
2018-11-02T20:19:02.067Z,93.82
2018-11-02T20:21:32.272Z,93.76
2018-11-02T20:24:02.383Z,93.78
2018-11-02T20:26:32.586Z,93.72
2018-11-02T20:29:02.807Z,93.92
2018-11-02T20:31:32.777Z,94.13
2018-11-02T20:34:03.204Z,93.93
2018-11-02T20:36:33.481Z,93.71
2018-11-02T20:39:04.327Z,93.88
2018-11-02T20:41:34.459Z,94.09
2018-11-02T20:44:04.480Z,93.96
2018-11-02T20:46:35.252Z,94.37
2018-11-02T20:49:05.322Z,94.32
2018-11-02T20:51:35.504Z,94.28
2018-11-02T20:54:05.797Z,94.27
2018-11-02T20:56:36.101Z,93.86
2018-11-02T20:59:06.035Z,94.04
2018-11-02T21:01:36.145Z,95.11
2018-11-02T21:04:06.376Z,94.16
2018-11-02T21:06:36.322Z,93.44
2018-11-02T21:09:09.411Z,92.97
2018-11-02T21:11:39.118Z,93.07
2018-11-02T21:14:09.051Z,92.92
2018-11-02T21:16:38.974Z,93.12
2018-11-02T21:19:08.883Z,93.00
2018-11-02T21:21:38.883Z,93.29
2018-11-02T21:24:09.887Z,93.24
2018-11-02T21:26:39.798Z,93.13
2018-11-02T21:29:09.765Z,93.08
2018-11-02T21:31:39.655Z,93.22
2018-11-02T21:34:09.526Z,93.57
2018-11-02T21:36:39.401Z,93.39
2018-11-02T21:39:11.462Z,93.51
2018-11-02T21:41:41.294Z,93.76
2018-11-02T21:44:11.369Z,93.41
2018-11-02T21:46:41.276Z,93.64
2018-11-02T21:49:11.174Z,93.96
2018-11-02T21:51:41.050Z,94.07
2018-11-02T21:54:10.969Z,93.78
2018-11-02T21:56:41.017Z,94.11
2018-11-02T21:59:11.083Z,94.02
2018-11-02T22:01:40.915Z,94.12
2018-11-02T22:04:10.890Z,93.83
2018-11-02T22:06:40.888Z,93.87
2018-11-02T22:09:11.408Z,94.44
2018-11-02T22:11:42.359Z,94.14
2018-11-02T22:14:12.230Z,94.63
2018-11-02T22:16:42.167Z,94.55
2018-11-02T22:19:12.113Z,94.67
2018-11-02T22:21:41.998Z,94.23
2018-11-02T22:24:11.911Z,94.33
2018-11-02T22:26:41.899Z,94.51
2018-11-02T22:29:11.755Z,94.54
2018-11-02T22:31:41.686Z,94.29
2018-11-02T22:34:11.663Z,94.32
2018-11-02T22:36:41.910Z,94.63
2018-11-02T22:39:12.086Z,94.23
2018-11-02T22:41:42.012Z,94.30
2018-11-02T22:44:11.971Z,94.16
2018-11-02T22:46:41.988Z,94.14
2018-11-02T22:49:11.883Z,94.37
2018-11-02T22:51:41.708Z,94.13
2018-11-02T22:54:11.678Z,94.51
2018-11-02T22:56:41.551Z,94.46
2018-11-02T22:59:11.476Z,94.15
2018-11-02T23:01:41.310Z,94.10
2018-11-02T23:04:11.210Z,94.41
2018-11-02T23:06:41.115Z,94.02
2018-11-02T23:09:11.014Z,94.13
2018-11-02T23:11:40.758Z,94.20
2018-11-02T23:14:10.703Z,94.02
2018-11-02T23:16:40.602Z,94.17
2018-11-02T23:19:10.413Z,94.20
2018-11-02T23:21:40.262Z,94.58
2018-11-02T23:24:10.199Z,94.14
2018-11-02T23:26:40.056Z,94.13
2018-11-02T23:29:10.450Z,94.32
2018-11-02T23:31:40.354Z,94.44
2018-11-02T23:34:10.210Z,94.01
2018-11-02T23:36:40.122Z,94.39
2018-11-02T23:39:10.334Z,94.23
2018-11-02T23:41:40.130Z,94.33
2018-11-02T23:44:09.982Z,94.15
2018-11-02T23:46:39.895Z,94.26
2018-11-02T23:49:09.750Z,94.08
2018-11-02T23:51:39.622Z,94.20
2018-11-02T23:54:09.566Z,94.33
2018-11-02T23:56:39.494Z,94.91
2018-11-02T23:59:09.452Z,94.87
